createdAt,value
2018-02-10T00:01:41.256Z,57.96
2018-02-10T00:04:12.319Z,58.02
2018-02-10T00:06:43.385Z,58.36
2018-02-10T00:09:14.439Z,58.32
2018-02-10T00:11:45.511Z,58.44
2018-02-10T00:14:16.748Z,58.59
2018-02-10T00:16:47.818Z,58.79
2018-02-10T00:19:18.934Z,58.71
2018-02-10T00:21:49.962Z,58.58
2018-02-10T00:24:21.010Z,58.40
2018-02-10T00:26:52.046Z,58.32
2018-02-10T00:29:23.109Z,58.19
2018-02-10T00:31:54.157Z,58.38
2018-02-10T00:34:25.242Z,58.46
2018-02-10T00:36:56.330Z,58.45
2018-02-10T00:39:27.386Z,58.56
2018-02-10T00:41:58.449Z,58.45
2018-02-10T00:44:29.519Z,58.33
2018-02-10T00:47:00.603Z,58.35
2018-02-10T00:49:31.639Z,58.43
2018-02-10T00:52:02.724Z,58.83
2018-02-10T00:54:33.769Z,58.84
2018-02-10T00:57:04.810Z,58.96
2018-02-10T00:59:35.886Z,59.20
2018-02-10T01:02:06.989Z,59.31
2018-02-10T01:04:38.088Z,59.24
2018-02-10T01:07:09.167Z,59.11
2018-02-10T01:09:40.224Z,59.13
2018-02-10T01:12:11.259Z,58.87
2018-02-10T01:14:42.391Z,58.79
2018-02-10T01:17:13.436Z,58.50
2018-02-10T01:19:44.538Z,58.53
2018-02-10T01:22:15.545Z,58.63
2018-02-10T01:24:46.614Z,59.05
2018-02-10T01:27:17.689Z,59.72
2018-02-10T01:29:48.722Z,59.70
2018-02-10T01:32:19.753Z,59.55
2018-02-10T01:34:50.806Z,59.30
2018-02-10T01:37:21.895Z,59.24
2018-02-10T01:39:52.946Z,59.08
2018-02-10T01:42:24.056Z,58.96
2018-02-10T01:44:55.118Z,59.04
2018-02-10T01:47:26.206Z,59.00
2018-02-10T01:50:09.714Z,59.05
2018-02-10T01:52:40.751Z,59.02
2018-02-10T01:55:11.821Z,58.91
2018-02-10T01:57:42.912Z,58.91
2018-02-10T02:00:13.973Z,58.97
2018-02-10T02:02:45.040Z,59.46
2018-02-10T02:05:16.184Z,59.50
2018-02-10T02:07:47.290Z,59.23
2018-02-10T02:10:18.359Z,58.93
2018-02-10T02:12:49.402Z,59.03
2018-02-10T02:15:20.458Z,59.12
2018-02-10T02:17:51.498Z,59.27
2018-02-10T02:20:22.899Z,59.15
2018-02-10T02:22:53.945Z,58.97
2018-02-10T02:25:25.059Z,58.87
2018-02-10T02:27:56.100Z,59.02
2018-02-10T02:30:27.193Z,59.08
2018-02-10T02:32:58.266Z,58.99
2018-02-10T02:35:29.292Z,58.80
2018-02-10T02:38:00.378Z,58.86
2018-02-10T02:40:31.426Z,58.97
2018-02-10T02:43:02.518Z,58.82
2018-02-10T02:45:33.565Z,58.79
2018-02-10T02:48:04.640Z,58.76
2018-02-10T02:50:35.669Z,58.63
2018-02-10T02:53:06.761Z,58.61
2018-02-10T02:55:37.856Z,58.47
2018-02-10T02:58:08.927Z,58.36
2018-02-10T03:00:39.974Z,58.26
2018-02-10T03:03:10.998Z,58.24
2018-02-10T03:05:42.100Z,58.38
2018-02-10T03:08:13.173Z,58.56
2018-02-10T03:10:44.215Z,58.65
2018-02-10T03:13:15.267Z,58.86
2018-02-10T03:15:46.523Z,58.95
2018-02-10T03:18:17.570Z,58.97
2018-02-10T03:20:48.690Z,59.14
2018-02-10T03:23:19.953Z,59.12
2018-02-10T03:25:51.061Z,59.22
2018-02-10T03:28:22.125Z,59.37
2018-02-10T03:30:53.202Z,59.40
2018-02-10T03:33:24.251Z,59.31
2018-02-10T03:35:55.323Z,59.17
2018-02-10T03:38:26.377Z,59.10
2018-02-10T03:40:57.422Z,59.39
2018-02-10T03:43:28.516Z,59.48
2018-02-10T03:45:59.597Z,59.39
2018-02-10T03:48:30.615Z,59.41
2018-02-10T03:51:01.691Z,59.41
2018-02-10T03:53:32.778Z,59.43
2018-02-10T03:56:03.830Z,59.44
2018-02-10T03:58:34.876Z,59.46
2018-02-10T04:01:05.931Z,59.45
2018-02-10T04:03:36.977Z,59.48
2018-02-10T04:06:08.105Z,59.66
2018-02-10T04:08:39.181Z,59.86
2018-02-10T04:11:10.279Z,59.93
2018-02-10T04:13:41.346Z,60.24
2018-02-10T04:16:12.435Z,60.13
2018-02-10T04:18:43.528Z,60.09
2018-02-10T04:21:14.578Z,59.96
2018-02-10T04:23:45.645Z,59.97
2018-02-10T04:26:16.701Z,60.04
2018-02-10T04:28:47.769Z,60.32
2018-02-10T04:31:18.822Z,60.68
2018-02-10T04:33:49.879Z,60.79
2018-02-10T04:36:20.946Z,61.05
2018-02-10T04:38:51.994Z,61.10
2018-02-10T04:41:23.211Z,61.02
2018-02-10T04:43:54.361Z,60.84
2018-02-10T04:46:25.401Z,61.03
2018-02-10T04:48:56.485Z,60.93
2018-02-10T04:51:27.563Z,61.07
2018-02-10T04:53:58.633Z,61.14
2018-02-10T04:56:29.715Z,61.03
2018-02-10T04:59:00.794Z,60.91
2018-02-10T05:01:31.841Z,60.75
2018-02-10T05:04:02.910Z,60.83
2018-02-10T05:06:33.999Z,60.76
2018-02-10T05:09:05.075Z,60.76
2018-02-10T05:11:36.145Z,60.88
2018-02-10T05:14:07.191Z,60.89
2018-02-10T05:16:39.204Z,61.00
2018-02-10T05:19:10.278Z,61.08
2018-02-10T05:21:41.362Z,61.07
2018-02-10T05:24:12.411Z,61.16
2018-02-10T05:26:43.493Z,61.24
2018-02-10T05:29:14.518Z,61.27
2018-02-10T05:31:45.592Z,61.41
2018-02-10T05:34:16.705Z,61.29
2018-02-10T05:36:47.772Z,61.03
2018-02-10T05:39:18.869Z,60.79
2018-02-10T05:41:49.929Z,60.74
2018-02-10T05:44:20.995Z,60.78
2018-02-10T05:46:52.095Z,60.99
2018-02-10T05:49:23.149Z,61.20
2018-02-10T05:51:54.259Z,61.21
2018-02-10T05:54:25.308Z,61.42
2018-02-10T05:56:56.353Z,61.43
2018-02-10T05:59:27.462Z,61.61
2018-02-10T06:01:58.514Z,61.41
2018-02-10T06:04:29.588Z,61.13
2018-02-10T06:07:00.689Z,61.06
2018-02-10T06:09:31.799Z,61.10
2018-02-10T06:12:02.855Z,61.33
2018-02-10T06:14:33.940Z,61.61
2018-02-10T06:17:04.999Z,61.64
2018-02-10T06:19:36.123Z,61.64
2018-02-10T06:22:07.198Z,61.49
2018-02-10T06:24:38.305Z,61.43
2018-02-10T06:27:09.368Z,61.41
2018-02-10T06:29:40.489Z,61.26
2018-02-10T06:32:11.541Z,61.17
2018-02-10T06:34:42.606Z,61.13
2018-02-10T06:37:13.638Z,61.12
2018-02-10T06:39:44.710Z,61.13
2018-02-10T06:42:15.753Z,61.14
2018-02-10T06:44:46.798Z,61.38
2018-02-10T06:47:17.999Z,61.44
2018-02-10T06:49:49.084Z,61.37
2018-02-10T06:52:20.140Z,61.22
2018-02-10T06:54:51.184Z,61.04
2018-02-10T06:57:23.006Z,61.10
2018-02-10T06:59:54.070Z,60.98
2018-02-10T07:02:25.150Z,60.80
2018-02-10T07:04:56.204Z,60.76
2018-02-10T07:07:27.334Z,60.73
2018-02-10T07:09:58.360Z,60.46
2018-02-10T07:12:29.418Z,60.20
2018-02-10T07:15:00.501Z,60.01
2018-02-10T07:17:31.522Z,60.02
2018-02-10T07:20:02.842Z,59.93
2018-02-10T07:22:34.381Z,59.73
2018-02-10T07:25:05.482Z,59.43
2018-02-10T07:27:36.525Z,59.35
2018-02-10T07:30:07.665Z,59.15
2018-02-10T07:32:38.683Z,59.01
2018-02-10T07:35:09.759Z,58.86
2018-02-10T07:37:40.805Z,58.51
2018-02-10T07:40:11.866Z,58.39
2018-02-10T07:42:42.953Z,58.25
2018-02-10T07:45:14.027Z,57.95
2018-02-10T07:47:45.096Z,57.80
2018-02-10T07:50:16.228Z,57.51
2018-02-10T07:52:47.251Z,57.51
2018-02-10T07:55:18.311Z,57.16
2018-02-10T07:57:49.389Z,56.99
2018-02-10T08:00:20.438Z,57.14
2018-02-10T08:02:51.510Z,57.03
2018-02-10T08:05:22.596Z,56.92
2018-02-10T08:07:53.663Z,56.71
2018-02-10T08:10:24.763Z,56.29
2018-02-10T08:12:55.817Z,55.89
2018-02-10T08:15:26.836Z,56.01
2018-02-10T08:17:57.886Z,55.93
2018-02-10T08:20:28.936Z,56.08
2018-02-10T08:22:59.995Z,56.08
2018-02-10T08:25:31.042Z,55.87
2018-02-10T08:28:02.114Z,55.59
2018-02-10T08:30:33.190Z,55.45
2018-02-10T08:33:04.279Z,55.21
2018-02-10T08:35:35.336Z,54.84
2018-02-10T08:38:07.245Z,54.99
2018-02-10T08:40:38.323Z,55.03
2018-02-10T08:43:09.434Z,55.03
2018-02-10T08:45:40.486Z,54.79
2018-02-10T08:48:11.513Z,54.55
2018-02-10T08:50:42.626Z,54.54
2018-02-10T08:53:13.753Z,54.35
2018-02-10T08:55:44.861Z,54.20
2018-02-10T08:58:15.894Z,54.04
2018-02-10T09:00:46.981Z,53.54
2018-02-10T09:03:18.025Z,53.26
2018-02-10T09:05:49.079Z,53.49
2018-02-10T09:08:20.165Z,53.21
2018-02-10T09:10:51.243Z,52.59
2018-02-10T09:13:22.283Z,52.63
2018-02-10T09:15:53.305Z,52.57
2018-02-10T09:18:24.357Z,52.28
2018-02-10T09:20:55.545Z,52.30
2018-02-10T09:23:26.797Z,51.65
2018-02-10T09:25:58.173Z,51.34
2018-02-10T09:28:29.275Z,51.42
2018-02-10T09:31:00.300Z,51.20
2018-02-10T09:33:31.447Z,50.95
2018-02-10T09:36:02.510Z,51.04
2018-02-10T09:38:33.613Z,50.63
2018-02-10T09:41:05.045Z,50.70
2018-02-10T09:43:36.131Z,50.80
2018-02-10T09:46:07.264Z,50.09
